sensor_id;sensor_type;location;lat;lon;timestamp;pressure;altitude;pressure_sealevel;temperature;humidity
79692;BME280;69158;55.592;37.610;2023-05-20T00:00:13;100274.38;;;21.52;45.07
79692;BME280;69158;55.592;37.610;2023-05-20T00:02:59;100273.56;;;21.52;45.12
79692;BME280;69158;55.592;37.610;2023-05-20T00:05:45;100266.13;;;21.54;44.96
79692;BME280;69158;55.592;37.610;2023-05-20T00:08:31;100251.50;;;21.45;45.24
79692;BME280;69158;55.592;37.610;2023-05-20T00:11:17;100268.56;;;21.55;45.06
79692;BME280;69158;55.592;37.610;2023-05-20T00:14:03;100264.03;;;21.56;44.96
79692;BME280;69158;55.592;37.610;2023-05-20T00:16:49;100258.69;;;21.56;45.05
79692;BME280;69158;55.592;37.610;2023-05-20T00:19:35;100254.16;;;21.56;45.07
79692;BME280;69158;55.592;37.610;2023-05-20T00:22:20;100260.56;;;21.55;45.20
79692;BME280;69158;55.592;37.610;2023-05-20T00:25:07;100260.56;;;21.55;45.13
79692;BME280;69158;55.592;37.610;2023-05-20T00:27:53;100240.25;;;21.43;44.95
79692;BME280;69158;55.592;37.610;2023-05-20T00:30:39;100260.66;;;21.60;45.02
79692;BME280;69158;55.592;37.610;2023-05-20T00:33:28;100270.53;;;21.60;45.09
79692;BME280;69158;55.592;37.610;2023-05-20T00:36:13;100268.69;;;21.60;44.79
79692;BME280;69158;55.592;37.610;2023-05-20T00:38:59;100262.75;;;21.58;45.06
79692;BME280;69158;55.592;37.610;2023-05-20T00:41:45;100263.31;;;21.60;44.76
79692;BME280;69158;55.592;37.610;2023-05-20T00:44:31;100263.56;;;21.59;45.00
79692;BME280;69158;55.592;37.610;2023-05-20T00:47:18;100269.50;;;21.61;45.07
79692;BME280;69158;55.592;37.610;2023-05-20T00:50:05;100264.59;;;21.58;45.23
79692;BME280;69158;55.592;37.610;2023-05-20T00:52:52;100273.75;;;21.62;44.83
79692;BME280;69158;55.592;37.610;2023-05-20T00:55:39;100263.00;;;21.57;45.01
79692;BME280;69158;55.592;37.610;2023-05-20T00:58:25;100271.44;;;21.65;44.68
79692;BME280;69158;55.592;37.610;2023-05-20T01:01:11;100263.88;;;21.62;45.08
79692;BME280;69158;55.592;37.610;2023-05-20T01:03:58;100257.16;;;21.60;44.99
79692;BME280;69158;55.592;37.610;2023-05-20T01:06:44;100266.56;;;21.62;45.01
79692;BME280;69158;55.592;37.610;2023-05-20T01:09:31;100271.69;;;21.64;44.98
79692;BME280;69158;55.592;37.610;2023-05-20T01:12:30;100260.41;;;21.62;45.09
79692;BME280;69158;55.592;37.610;2023-05-20T01:15:21;100259.69;;;21.66;44.69
79692;BME280;69158;55.592;37.610;2023-05-20T01:18:09;100248.22;;;21.54;45.04
79692;BME280;69158;55.592;37.610;2023-05-20T01:20:56;100262.63;;;21.65;45.07
79692;BME280;69158;55.592;37.610;2023-05-20T01:23:46;100268.19;;;21.63;44.85
79692;BME280;69158;55.592;37.610;2023-05-20T01:26:32;100258.88;;;21.66;44.88
79692;BME280;69158;55.592;37.610;2023-05-20T01:29:23;100261.81;;;21.64;45.18
79692;BME280;69158;55.592;37.610;2023-05-20T01:32:32;100264.69;;;21.63;45.32
79692;BME280;69158;55.592;37.610;2023-05-20T01:35:20;100267.97;;;21.65;45.23
79692;BME280;69158;55.592;37.610;2023-05-20T01:38:07;100266.56;;;21.62;45.01
79692;BME280;69158;55.592;37.610;2023-05-20T01:40:53;100264.81;;;21.68;45.05
79692;BME280;69158;55.592;37.610;2023-05-20T01:43:40;100259.13;;;21.64;45.27
79692;BME280;69158;55.592;37.610;2023-05-20T01:46:26;100269.09;;;21.69;45.22
79692;BME280;69158;55.592;37.610;2023-05-20T01:49:12;100273.31;;;21.65;45.15
79692;BME280;69158;55.592;37.610;2023-05-20T01:51:58;100279.31;;;21.72;44.88
79692;BME280;69158;55.592;37.610;2023-05-20T01:54:44;100277.69;;;21.71;45.01
79692;BME280;69158;55.592;37.610;2023-05-20T01:57:35;100275.81;;;21.71;45.31
79692;BME280;69158;55.592;37.610;2023-05-20T02:00:21;100276.31;;;21.68;45.15
79692;BME280;69158;55.592;37.610;2023-05-20T02:03:07;100277.69;;;21.71;45.30
79692;BME280;69158;55.592;37.610;2023-05-20T02:05:52;100273.41;;;21.70;45.23
79692;BME280;69158;55.592;37.610;2023-05-20T02:08:38;100274.78;;;21.72;44.95
79692;BME280;69158;55.592;37.610;2023-05-20T02:11:24;100268.63;;;21.72;45.09
79692;BME280;69158;55.592;37.610;2023-05-20T02:14:10;100280.47;;;21.76;45.16
79692;BME280;69158;55.592;37.610;2023-05-20T02:16:56;100264.66;;;21.74;45.12
79692;BME280;69158;55.592;37.610;2023-05-20T02:19:43;100261.19;;;21.74;44.97
79692;BME280;69158;55.592;37.610;2023-05-20T02:22:29;100272.78;;;21.80;44.88
79692;BME280;69158;55.592;37.610;2023-05-20T02:25:15;100250.72;;;21.72;44.56
79692;BME280;69158;55.592;37.610;2023-05-20T02:28:01;100275.53;;;21.85;44.57
79692;BME280;69158;55.592;37.610;2023-05-20T02:30:50;100263.22;;;21.84;44.43
79692;BME280;69158;55.592;37.610;2023-05-20T02:33:36;100265.19;;;21.88;44.48
79692;BME280;69158;55.592;37.610;2023-05-20T02:36:22;100264.94;;;21.90;44.29
79692;BME280;69158;55.592;37.610;2023-05-20T02:39:07;100268.66;;;21.89;44.15
79692;BME280;69158;55.592;37.610;2023-05-20T02:41:53;100247.44;;;21.82;44.49
79692;BME280;69158;55.592;37.610;2023-05-20T02:44:39;100243.63;;;21.78;44.37
79692;BME280;69158;55.592;37.610;2023-05-20T02:47:25;100274.16;;;21.94;44.05
79692;BME280;69158;55.592;37.610;2023-05-20T02:50:11;100272.28;;;21.94;44.43
79692;BME280;69158;55.592;37.610;2023-05-20T02:52:57;100269.84;;;21.93;44.38
79692;BME280;69158;55.592;37.610;2023-05-20T02:55:45;100271.47;;;21.94;44.02
79692;BME280;69158;55.592;37.610;2023-05-20T02:58:31;100254.50;;;21.88;44.19
79692;BME280;69158;55.592;37.610;2023-05-20T03:01:17;100274.03;;;22.00;44.24
79692;BME280;69158;55.592;37.610;2023-05-20T03:04:03;100276.69;;;22.00;44.45
79692;BME280;69158;55.592;37.610;2023-05-20T03:06:49;100274.81;;;22.01;44.20
79692;BME280;69158;55.592;37.610;2023-05-20T03:09:36;100276.75;;;22.05;43.89
79692;BME280;69158;55.592;37.610;2023-05-20T03:12:22;100267.13;;;22.04;43.83
79692;BME280;69158;55.592;37.610;2023-05-20T03:15:10;100276.63;;;22.12;44.04
79692;BME280;69158;55.592;37.610;2023-05-20T03:17:57;100275.81;;;22.11;43.66
79692;BME280;69158;55.592;37.610;2023-05-20T03:20:42;100258.75;;;22.01;43.91
79692;BME280;69158;55.592;37.610;2023-05-20T03:23:29;100259.66;;;22.06;43.69
79692;BME280;69158;55.592;37.610;2023-05-20T03:26:14;100279.47;;;22.22;43.40
79692;BME280;69158;55.592;37.610;2023-05-20T03:29:01;100274.38;;;22.21;43.70
79692;BME280;69158;55.592;37.610;2023-05-20T03:31:47;100277.47;;;22.29;43.13
79692;BME280;69158;55.592;37.610;2023-05-20T03:34:32;100289.53;;;22.32;43.45
79692;BME280;69158;55.592;37.610;2023-05-20T03:37:18;100284.28;;;22.37;43.45
79692;BME280;69158;55.592;37.610;2023-05-20T03:40:05;100284.50;;;22.35;43.51
79692;BME280;69158;55.592;37.610;2023-05-20T03:42:51;100284.59;;;22.40;43.29
79692;BME280;69158;55.592;37.610;2023-05-20T03:45:37;100289.13;;;22.40;43.02
79692;BME280;69158;55.592;37.610;2023-05-20T03:48:23;100279.97;;;22.36;43.02
79692;BME280;69158;55.592;37.610;2023-05-20T03:51:09;100275.19;;;22.38;43.32
79692;BME280;69158;55.592;37.610;2023-05-20T03:53:54;100279.50;;;22.39;43.23
79692;BME280;69158;55.592;37.610;2023-05-20T03:56:40;100276.56;;;22.40;42.99
79692;BME280;69158;55.592;37.610;2023-05-20T03:59:26;100276.09;;;22.43;43.22
79692;BME280;69158;55.592;37.610;2023-05-20T04:02:12;100269.44;;;22.46;42.94
79692;BME280;69158;55.592;37.610;2023-05-20T04:04:58;100274.63;;;22.52;42.35
79692;BME280;69158;55.592;37.610;2023-05-20T04:07:45;100261.19;;;22.47;42.61
79692;BME280;69158;55.592;37.610;2023-05-20T04:10:32;100273.44;;;22.60;42.75
79692;BME280;69158;55.592;37.610;2023-05-20T04:13:17;100259.69;;;22.56;42.72
79692;BME280;69158;55.592;37.610;2023-05-20T04:16:04;100279.09;;;22.63;42.18
79692;BME280;69158;55.592;37.610;2023-05-20T04:18:49;100278.88;;;22.65;42.18
79692;BME280;69158;55.592;37.610;2023-05-20T04:21:37;100273.38;;;22.72;42.05
79692;BME280;69158;55.592;37.610;2023-05-20T04:24:24;100269.63;;;22.73;42.13
79692;BME280;69158;55.592;37.610;2023-05-20T04:27:10;100274.88;;;22.84;41.99
79692;BME280;69158;55.592;37.610;2023-05-20T04:29:55;100268.56;;;22.90;42.03
79692;BME280;69158;55.592;37.610;2023-05-20T04:32:43;100259.22;;;22.93;41.77
79692;BME280;69158;55.592;37.610;2023-05-20T04:35:29;100274.88;;;23.01;41.56
79692;BME280;69158;55.592;37.610;2023-05-20T04:38:15;100265.19;;;23.00;41.52
79692;BME280;69158;55.592;37.610;2023-05-20T04:41:01;100262.69;;;23.10;41.51
79692;BME280;69158;55.592;37.610;2023-05-20T04:43:47;100239.44;;;22.94;41.30
79692;BME280;69158;55.592;37.610;2023-05-20T04:46:34;100272.72;;;23.20;41.22
79692;BME280;69158;55.592;37.610;2023-05-20T04:49:20;100270.59;;;23.22;41.20
79692;BME280;69158;55.592;37.610;2023-05-20T04:52:06;100272.44;;;23.21;41.27
79692;BME280;69158;55.592;37.610;2023-05-20T04:54:51;100269.59;;;23.28;41.28
79692;BME280;69158;55.592;37.610;2023-05-20T04:57:38;100274.59;;;23.41;40.65
79692;BME280;69158;55.592;37.610;2023-05-20T05:00:26;100274.44;;;23.47;40.57
79692;BME280;69158;55.592;37.610;2023-05-20T05:03:11;100273.75;;;23.57;40.63
79692;BME280;69158;55.592;37.610;2023-05-20T05:05:58;100272.47;;;23.60;40.02
79692;BME280;69158;55.592;37.610;2023-05-20T05:08:43;100273.56;;;23.64;40.30
79692;BME280;69158;55.592;37.610;2023-05-20T05:11:30;100268.25;;;23.69;40.17
79692;BME280;69158;55.592;37.610;2023-05-20T05:14:16;100272.63;;;23.75;40.10
79692;BME280;69158;55.592;37.610;2023-05-20T05:17:02;100249.19;;;23.65;40.28
79692;BME280;69158;55.592;37.610;2023-05-20T05:19:48;100263.38;;;23.87;40.48
79692;BME280;69158;55.592;37.610;2023-05-20T05:22:34;100258.31;;;23.91;40.16
79692;BME280;69158;55.592;37.610;2023-05-20T05:25:21;100244.09;;;23.90;40.09
79692;BME280;69158;55.592;37.610;2023-05-20T05:28:07;100249.31;;;24.02;39.78
79692;BME280;69158;55.592;37.610;2023-05-20T05:30:53;100259.97;;;24.19;39.45
79692;BME280;69158;55.592;37.610;2023-05-20T05:33:40;100251.19;;;24.28;39.14
79692;BME280;69158;55.592;37.610;2023-05-20T05:36:26;100257.16;;;24.35;38.71
79692;BME280;69158;55.592;37.610;2023-05-20T05:39:12;100265.25;;;24.40;38.95
79692;BME280;69158;55.592;37.610;2023-05-20T05:41:58;100258.06;;;24.46;38.60
79692;BME280;69158;55.592;37.610;2023-05-20T05:44:44;100234.38;;;24.43;38.30
79692;BME280;69158;55.592;37.610;2023-05-20T05:51:12;100248.56;;;24.70;37.92
79692;BME280;69158;55.592;37.610;2023-05-20T05:53:57;100259.38;;;24.80;37.44
79692;BME280;69158;55.592;37.610;2023-05-20T05:56:43;100254.13;;;24.96;37.28
79692;BME280;69158;55.592;37.610;2023-05-20T05:59:29;100259.03;;;25.09;36.98
79692;BME280;69158;55.592;37.610;2023-05-20T06:02:15;100255.88;;;25.22;36.92
79692;BME280;69158;55.592;37.610;2023-05-20T06:05:02;100260.78;;;25.40;36.77
79692;BME280;69158;55.592;37.610;2023-05-20T06:07:48;100250.94;;;25.56;36.49
79692;BME280;69158;55.592;37.610;2023-05-20T06:14:16;100261.00;;;26.06;35.02
79692;BME280;69158;55.592;37.610;2023-05-20T06:17:02;100264.81;;;26.35;34.76
79692;BME280;69158;55.592;37.610;2023-05-20T06:19:48;100237.38;;;26.53;33.97
79692;BME280;69158;55.592;37.610;2023-05-20T06:22:34;100248.63;;;26.86;34.18
79692;BME280;69158;55.592;37.610;2023-05-20T06:25:20;100253.06;;;27.36;33.66
79692;BME280;69158;55.592;37.610;2023-05-20T06:28:07;100260.91;;;27.91;32.92
79692;BME280;69158;55.592;37.610;2023-05-20T06:30:53;100259.16;;;28.16;32.67
79692;BME280;69158;55.592;37.610;2023-05-20T06:33:39;100239.16;;;28.17;32.56
79692;BME280;69158;55.592;37.610;2023-05-20T06:36:26;100258.13;;;28.40;31.94
79692;BME280;69158;55.592;37.610;2023-05-20T06:39:12;100255.84;;;28.24;32.17
79692;BME280;69158;55.592;37.610;2023-05-20T06:41:58;100263.03;;;28.38;32.03
79692;BME280;69158;55.592;37.610;2023-05-20T06:44:44;100250.88;;;28.70;31.70
79692;BME280;69158;55.592;37.610;2023-05-20T06:47:30;100255.72;;;28.73;31.86
79692;BME280;69158;55.592;37.610;2023-05-20T06:50:16;100257.84;;;28.76;31.67
79692;BME280;69158;55.592;37.610;2023-05-20T06:53:01;100237.34;;;28.99;31.21
79692;BME280;69158;55.592;37.610;2023-05-20T06:55:48;100242.09;;;29.30;31.18
79692;BME280;69158;55.592;37.610;2023-05-20T06:58:34;100242.88;;;29.73;30.61
79692;BME280;69158;55.592;37.610;2023-05-20T07:01:20;100252.75;;;30.20;30.02
79692;BME280;69158;55.592;37.610;2023-05-20T07:04:06;100252.88;;;30.80;28.93
79692;BME280;69158;55.592;37.610;2023-05-20T07:06:52;100248.66;;;31.29;27.94
79692;BME280;69158;55.592;37.610;2023-05-20T07:09:38;100249.06;;;31.49;27.50
79692;BME280;69158;55.592;37.610;2023-05-20T07:12:24;100249.34;;;31.48;27.65
79692;BME280;69158;55.592;37.610;2023-05-20T07:15:10;100239.97;;;31.54;27.77
79692;BME280;69158;55.592;37.610;2023-05-20T07:17:56;100235.97;;;31.51;26.88
79692;BME280;69158;55.592;37.610;2023-05-20T07:20:43;100239.22;;;31.89;26.99
79692;BME280;69158;55.592;37.610;2023-05-20T07:23:28;100241.03;;;31.80;26.69
79692;BME280;69158;55.592;37.610;2023-05-20T07:26:14;100248.66;;;31.92;26.96
79692;BME280;69158;55.592;37.610;2023-05-20T07:29:01;100240.09;;;31.98;26.52
79692;BME280;69158;55.592;37.610;2023-05-20T07:31:47;100219.56;;;31.70;26.81
79692;BME280;69158;55.592;37.610;2023-05-20T07:34:33;100247.22;;;31.72;27.38
79692;BME280;69158;55.592;37.610;2023-05-20T07:37:18;100238.03;;;31.82;27.46
79692;BME280;69158;55.592;37.610;2023-05-20T07:40:05;100234.28;;;31.91;27.97
79692;BME280;69158;55.592;37.610;2023-05-20T07:42:52;100238.84;;;31.82;28.04
79692;BME280;69158;55.592;37.610;2023-05-20T07:45:38;100239.84;;;32.53;27.74
79692;BME280;69158;55.592;37.610;2023-05-20T07:48:23;100236.22;;;33.45;26.49
79692;BME280;69158;55.592;37.610;2023-05-20T07:51:10;100194.59;;;33.53;26.27
79692;BME280;69158;55.592;37.610;2023-05-20T07:53:56;100235.00;;;33.94;25.96
79692;BME280;69158;55.592;37.610;2023-05-20T07:56:42;100228.09;;;33.71;26.91
79692;BME280;69158;55.592;37.610;2023-05-20T07:59:28;100234.63;;;32.96;27.61
79692;BME280;69158;55.592;37.610;2023-05-20T08:02:14;100240.91;;;32.66;27.97
79692;BME280;69158;55.592;37.610;2023-05-20T08:05:00;100230.69;;;32.18;28.51
79692;BME280;69158;55.592;37.610;2023-05-20T08:07:46;100214.78;;;31.53;29.89
79692;BME280;69158;55.592;37.610;2023-05-20T08:10:32;100231.66;;;31.37;30.05
79692;BME280;69158;55.592;37.610;2023-05-20T08:13:18;100246.03;;;31.51;30.30
79692;BME280;69158;55.592;37.610;2023-05-20T08:16:04;100243.66;;;31.22;30.98
79692;BME280;69158;55.592;37.610;2023-05-20T08:18:52;100220.34;;;31.07;31.23
79692;BME280;69158;55.592;37.610;2023-05-20T08:21:38;100224.03;;;30.98;31.71
79692;BME280;69158;55.592;37.610;2023-05-20T08:24:24;100243.00;;;30.71;32.01
79692;BME280;69158;55.592;37.610;2023-05-20T08:27:10;100215.00;;;30.43;32.64
79692;BME280;69158;55.592;37.610;2023-05-20T08:29:56;100233.78;;;30.72;32.63
79692;BME280;69158;55.592;37.610;2023-05-20T08:32:41;100229.63;;;30.60;32.67
79692;BME280;69158;55.592;37.610;2023-05-20T08:35:27;100229.41;;;30.25;33.61
79692;BME280;69158;55.592;37.610;2023-05-20T08:38:13;100240.75;;;29.94;33.91
79692;BME280;69158;55.592;37.610;2023-05-20T08:40:59;100231.34;;;29.68;34.43
79692;BME280;69158;55.592;37.610;2023-05-20T08:43:45;100227.81;;;29.49;35.20
79692;BME280;69158;55.592;37.610;2023-05-20T08:46:33;100228.34;;;29.51;35.77
79692;BME280;69158;55.592;37.610;2023-05-20T08:49:20;100217.81;;;29.68;35.29
79692;BME280;69158;55.592;37.610;2023-05-20T08:52:08;100223.09;;;29.97;35.62
79692;BME280;69158;55.592;37.610;2023-05-20T08:54:56;100229.38;;;29.92;35.31
79692;BME280;69158;55.592;37.610;2023-05-20T08:57:43;100237.84;;;29.67;36.05
79692;BME280;69158;55.592;37.610;2023-05-20T09:00:32;100211.00;;;29.33;35.74
79692;BME280;69158;55.592;37.610;2023-05-20T09:03:18;100231.97;;;29.17;36.75
79692;BME280;69158;55.592;37.610;2023-05-20T09:06:08;100232.47;;;28.96;36.92
79692;BME280;69158;55.592;37.610;2023-05-20T09:08:54;100221.44;;;28.92;37.14
79692;BME280;69158;55.592;37.610;2023-05-20T09:11:40;100235.72;;;28.98;37.52
79692;BME280;69158;55.592;37.610;2023-05-20T09:14:26;100231.75;;;28.90;37.28
79692;BME280;69158;55.592;37.610;2023-05-20T09:17:13;100219.78;;;28.67;37.72
79692;BME280;69158;55.592;37.610;2023-05-20T09:19:58;100241.81;;;28.56;38.62
79692;BME280;69158;55.592;37.610;2023-05-20T09:22:44;100233.38;;;28.28;38.99
79692;BME280;69158;55.592;37.610;2023-05-20T09:25:30;100238.13;;;28.08;39.52
79692;BME280;69158;55.592;37.610;2023-05-20T09:28:23;100240.25;;;27.67;34.16
79692;BME280;69158;55.592;37.610;2023-05-20T09:31:14;100225.34;;;27.25;35.00
79692;BME280;69158;55.592;37.610;2023-05-20T09:34:00;100237.28;;;27.09;35.40
79692;BME280;69158;55.592;37.610;2023-05-20T09:36:49;100244.59;;;26.73;35.49
79692;BME280;69158;55.592;37.610;2023-05-20T09:39:45;100256.75;;;26.40;37.59
79692;BME280;69158;55.592;37.610;2023-05-20T09:42:43;100236.00;;;26.21;36.12
79692;BME280;69158;55.592;37.610;2023-05-20T09:45:32;100239.97;;;25.98;36.15
79692;BME280;69158;55.592;37.610;2023-05-20T09:48:18;100254.53;;;25.92;37.58
79692;BME280;69158;55.592;37.610;2023-05-20T09:51:05;100237.25;;;25.72;36.54
79692;BME280;69158;55.592;37.610;2023-05-20T09:53:52;100253.19;;;25.99;36.62
79692;BME280;69158;55.592;37.610;2023-05-20T09:56:40;100259.66;;;26.03;38.18
79692;BME280;69158;55.592;37.610;2023-05-20T09:59:26;100246.44;;;26.02;37.50
79692;BME280;69158;55.592;37.610;2023-05-20T10:02:14;100247.00;;;25.89;37.94
79692;BME280;69158;55.592;37.610;2023-05-20T10:05:03;100254.78;;;25.90;37.12
79692;BME280;69158;55.592;37.610;2023-05-20T10:08:00;100265.81;;;25.84;36.96
79692;BME280;69158;55.592;37.610;2023-05-20T10:11:06;100232.16;;;25.76;36.97
79692;BME280;69158;55.592;37.610;2023-05-20T10:17:24;100257.75;;;26.04;35.79
79692;BME280;69158;55.592;37.610;2023-05-20T10:20:14;100255.34;;;26.07;36.19
79692;BME280;69158;55.592;37.610;2023-05-20T10:23:00;100252.94;;;26.16;36.46
79692;BME280;69158;55.592;37.610;2023-05-20T10:25:53;100269.09;;;26.06;35.40
79692;BME280;69158;55.592;37.610;2023-05-20T10:28:40;100274.44;;;26.11;36.34
79692;BME280;69158;55.592;37.610;2023-05-20T10:31:26;100274.72;;;26.04;36.00
79692;BME280;69158;55.592;37.610;2023-05-20T10:34:16;100260.44;;;25.99;36.30
79692;BME280;69158;55.592;37.610;2023-05-20T10:37:03;100256.66;;;25.90;36.63
79692;BME280;69158;55.592;37.610;2023-05-20T10:39:48;100267.38;;;25.69;36.88
79692;BME280;69158;55.592;37.610;2023-05-20T10:42:34;100240.59;;;25.38;36.72
79692;BME280;69158;55.592;37.610;2023-05-20T10:45:27;100268.53;;;25.26;37.45
79692;BME280;69158;55.592;37.610;2023-05-20T10:48:22;100261.75;;;25.14;36.07
79692;BME280;69158;55.592;37.610;2023-05-20T10:51:13;100270.19;;;24.91;36.79
79692;BME280;69158;55.592;37.610;2023-05-20T10:54:00;100235.53;;;24.52;38.34
79692;BME280;69158;55.592;37.610;2023-05-20T10:56:53;100261.31;;;24.53;38.67
79692;BME280;69158;55.592;37.610;2023-05-20T10:59:40;100272.31;;;24.52;39.42
79692;BME280;69158;55.592;37.610;2023-05-20T11:02:26;100272.69;;;24.33;39.83
79692;BME280;69158;55.592;37.610;2023-05-20T11:05:15;100270.16;;;24.22;38.72
79692;BME280;69158;55.592;37.610;2023-05-20T11:08:03;100265.56;;;24.17;39.23
79692;BME280;69158;55.592;37.610;2023-05-20T11:10:49;100275.97;;;24.14;40.36
79692;BME280;69158;55.592;37.610;2023-05-20T11:13:35;100277.34;;;24.16;37.90
79692;BME280;69158;55.592;37.610;2023-05-20T11:16:21;100273.28;;;24.14;38.45
79692;BME280;69158;55.592;37.610;2023-05-20T11:19:07;100271.59;;;24.08;36.50
79692;BME280;69158;55.592;37.610;2023-05-20T11:21:53;100249.72;;;23.89;40.12
79692;BME280;69158;55.592;37.610;2023-05-20T11:24:39;100270.72;;;23.97;37.55
79692;BME280;69158;55.592;37.610;2023-05-20T11:27:26;100265.25;;;24.14;37.77
79692;BME280;69158;55.592;37.610;2023-05-20T11:30:13;100260.09;;;24.07;37.52
79692;BME280;69158;55.592;37.610;2023-05-20T11:33:05;100260.88;;;24.08;38.19
79692;BME280;69158;55.592;37.610;2023-05-20T11:35:52;100270.41;;;24.15;39.63
79692;BME280;69158;55.592;37.610;2023-05-20T11:38:39;100281.13;;;24.15;39.55
79692;BME280;69158;55.592;37.610;2023-05-20T11:41:26;100283.34;;;24.23;41.19
79692;BME280;69158;55.592;37.610;2023-05-20T11:44:12;100275.88;;;24.30;41.37
79692;BME280;69158;55.592;37.610;2023-05-20T11:47:02;100280.72;;;24.28;38.69
79692;BME280;69158;55.592;37.610;2023-05-20T11:49:48;100264.97;;;24.42;40.91
79692;BME280;69158;55.592;37.610;2023-05-20T11:52:34;100275.50;;;24.49;40.97
79692;BME280;69158;55.592;37.610;2023-05-20T11:55:19;100266.41;;;24.50;39.99
79692;BME280;69158;55.592;37.610;2023-05-20T11:58:05;100266.47;;;24.60;38.97
79692;BME280;69158;55.592;37.610;2023-05-20T12:00:51;100263.59;;;24.71;43.01
79692;BME280;69158;55.592;37.610;2023-05-20T12:03:37;100270.56;;;24.72;40.66
79692;BME280;69158;55.592;37.610;2023-05-20T12:06:23;100261.75;;;24.77;42.44
79692;BME280;69158;55.592;37.610;2023-05-20T12:09:09;100251.00;;;24.77;42.28
79692;BME280;69158;55.592;37.610;2023-05-20T12:11:55;100269.09;;;24.87;41.85
79692;BME280;69158;55.592;37.610;2023-05-20T12:14:41;100264.66;;;25.07;41.99
79692;BME280;69158;55.592;37.610;2023-05-20T12:17:27;100262.25;;;25.06;38.27
79692;BME280;69158;55.592;37.610;2023-05-20T12:20:14;100240.63;;;24.85;38.91
79692;BME280;69158;55.592;37.610;2023-05-20T12:23:01;100264.91;;;25.01;39.21
79692;BME280;69158;55.592;37.610;2023-05-20T12:25:47;100273.97;;;24.95;39.66
79692;BME280;69158;55.592;37.610;2023-05-20T12:28:36;100247.59;;;24.87;40.69
79692;BME280;69158;55.592;37.610;2023-05-20T12:31:22;100247.75;;;25.12;39.96
79692;BME280;69158;55.592;37.610;2023-05-20T12:34:08;100257.00;;;25.31;39.32
79692;BME280;69158;55.592;37.610;2023-05-20T12:36:53;100265.13;;;25.51;38.06
79692;BME280;69158;55.592;37.610;2023-05-20T12:39:39;100272.69;;;25.54;36.41
79692;BME280;69158;55.592;37.610;2023-05-20T12:42:25;100263.56;;;25.55;36.76
79692;BME280;69158;55.592;37.610;2023-05-20T12:45:11;100263.09;;;25.73;37.93
79692;BME280;69158;55.592;37.610;2023-05-20T12:47:58;100242.34;;;25.64;36.88
79692;BME280;69158;55.592;37.610;2023-05-20T12:50:43;100255.84;;;25.89;37.40
79692;BME280;69158;55.592;37.610;2023-05-20T12:53:30;100256.13;;;25.98;37.68
79692;BME280;69158;55.592;37.610;2023-05-20T12:56:16;100247.81;;;26.04;37.46
79692;BME280;69158;55.592;37.610;2023-05-20T12:59:02;100249.72;;;26.09;34.56
79692;BME280;69158;55.592;37.610;2023-05-20T13:01:48;100241.34;;;26.00;36.51
79692;BME280;69158;55.592;37.610;2023-05-20T13:04:33;100251.31;;;26.15;36.43
79692;BME280;69158;55.592;37.610;2023-05-20T13:07:19;100249.16;;;26.07;36.18
79692;BME280;69158;55.592;37.610;2023-05-20T13:10:06;100258.59;;;26.14;36.54
79692;BME280;69158;55.592;37.610;2023-05-20T13:12:52;100247.25;;;26.02;35.84
79692;BME280;69158;55.592;37.610;2023-05-20T13:15:38;100252.94;;;26.01;39.53
79692;BME280;69158;55.592;37.610;2023-05-20T13:18:24;100241.31;;;25.90;37.78
79692;BME280;69158;55.592;37.610;2023-05-20T13:21:10;100246.47;;;25.97;37.67
79692;BME280;69158;55.592;37.610;2023-05-20T13:23:55;100255.59;;;25.96;38.56
79692;BME280;69158;55.592;37.610;2023-05-20T13:26:41;100256.13;;;25.98;40.74
79692;BME280;69158;55.592;37.610;2023-05-20T13:29:28;100261.78;;;25.86;39.58
79692;BME280;69158;55.592;37.610;2023-05-20T13:32:14;100265.81;;;25.84;40.45
79692;BME280;69158;55.592;37.610;2023-05-20T13:35:01;100272.25;;;25.78;37.72
79692;BME280;69158;55.592;37.610;2023-05-20T13:37:47;100267.94;;;25.77;40.91
79692;BME280;69158;55.592;37.610;2023-05-20T13:40:33;100279.78;;;25.81;42.30
79692;BME280;69158;55.592;37.610;2023-05-20T13:43:18;100260.13;;;25.75;42.94
79692;BME280;69158;55.592;37.610;2023-05-20T13:46:04;100266.81;;;25.62;40.75
79692;BME280;69158;55.592;37.610;2023-05-20T13:48:50;100263.03;;;25.53;40.78
79692;BME280;69158;55.592;37.610;2023-05-20T13:51:36;100276.69;;;25.52;41.52
79692;BME280;69158;55.592;37.610;2023-05-20T13:54:22;100272.91;;;25.48;42.03
79692;BME280;69158;55.592;37.610;2023-05-20T13:57:08;100269.91;;;25.39;41.18
79692;BME280;69158;55.592;37.610;2023-05-20T13:59:53;100281.22;;;25.36;44.23
79692;BME280;69158;55.592;37.610;2023-05-20T14:02:39;100267.50;;;25.33;43.26
79692;BME280;69158;55.592;37.610;2023-05-20T14:05:25;100261.56;;;25.30;43.27
79692;BME280;69158;55.592;37.610;2023-05-20T14:08:12;100267.22;;;25.34;42.11
79692;BME280;69158;55.592;37.610;2023-05-20T14:10:57;100267.69;;;25.21;46.01
79692;BME280;69158;55.592;37.610;2023-05-20T14:13:43;100263.91;;;25.17;43.56
79692;BME280;69158;55.592;37.610;2023-05-20T14:16:30;100270.06;;;25.12;44.40
79692;BME280;69158;55.592;37.610;2023-05-20T14:19:16;100264.16;;;25.15;45.01
79692;BME280;69158;55.592;37.610;2023-05-20T14:22:02;100271.41;;;25.10;45.18
79692;BME280;69158;55.592;37.610;2023-05-20T14:24:48;100259.03;;;25.09;46.79
79692;BME280;69158;55.592;37.610;2023-05-20T14:27:34;100262.16;;;24.96;46.63
79692;BME280;69158;55.592;37.610;2023-05-20T14:30:19;100265.25;;;24.77;45.71